Aviation Digital Data Service (ADDS)

Output produced by METARs form (0814 UTC 24 May 2018)
found at http://www.aviationweather.gov/adds/metars/
 
DRRN 240800Z 28009KT 6000 NSC 33/20 Q1010 NOSIG
TAF DRRN 240500Z 2406/2512 24010KT 8000 NSC 
     PROB40 
     TEMPO 2416/2420 TS SCT030 FEW040CB
       
DRZA 240800Z 20004KT 8000 NSC 38/05 Q1012
TAF DRZA 240500Z 2406/2506 17010KT 8000 NSC
       
DRRM 240800Z 26010KT CAVOK 33/20 Q1013
DRRT 240800Z 24010KT CAVOK 33/18 Q1012
DRZR 240800Z 28016KT CAVOK 34/17 Q1012
TAF DRZR 240500Z 2406/2506 24008KT 8000 NSC 
     PROB40 
     TEMPO 2415/2421 08020G30KT 1200 BLDU TSRA SCT030 FEW040CB